Weather at Burris Ranch #1 Airport

Public forecast

Using degrees Fahrenheit for public forecast. Weather courtesy of forecast.io.

Closest aviation weather report (METAR) to Burris Ranch #1 Airport

Closest report is Socorro Municipal Airport, 31.3 nm (57.9 km) SSW.

2024/04/24 13:15 (retrieved 23 minutes ago)

KONM 241315Z AUTO 35005KT 10SM CLR 14/M01 A3013 RMK AO2 T01421015

Closest aviation forecast (TAF) to Burris Ranch #1 Airport

Closest forecast is Albuquerque International Sunport, 33.2 nm (61.5 km) N.

2024/04/24 12:39 (retrieved 59 minutes ago)

TAF KABQ 241137Z 2412/2512 35007KT P6SM SKC FM241500 VRB05KT P6SM SKC FM242000 20011G20KT P6SM SCT250 FM250200 17012KT P6SM BKN250 FM250700 VRB05KT P6SM SCT250